Walshville, Illinois
Current Conditions -  °F | °C
As of 7:35 AM on Thursday 30 Oct 2014 (Local Time) from K3LF Reporting Station
Clear Clear  
Wind Chill: 30°   Ceiling: Unl
Heat Index: 35°   Visibility: 7mi
Dew Point: 33°   Wind: 6mph
Humidity: 90%   Direction: 140°SE
Pressure: 30.15"   Gusts: NA
Location:  39.07°N, 89.62°W
Report Text: K3LF 301235Z AUTO 14005KT 7SM CLR 02/00 A3015 RMK AO2 T00190004
Loading
Personal Weather Stations






























Interactive Weather Map
Tropical Storm Tracking
New forecast layout! Learn more

10-Day Weather Forecast

Advertisements
Track Severe Weather on mobile